sensor_id;sensor_type;location;lat;lon;timestamp;P1;durP1;ratioP1;P2;durP2;ratioP2
13807;SDS011;40769;51.512;5.494;2023-04-25T00:00:35;6.07;;;4.50;;
13807;SDS011;40769;51.512;5.494;2023-04-25T00:03:00;7.65;;;3.95;;
13807;SDS011;40769;51.512;5.494;2023-04-25T00:05:26;4.43;;;3.20;;
13807;SDS011;40769;51.512;5.494;2023-04-25T00:07:52;6.32;;;4.18;;
13807;SDS011;40769;51.512;5.494;2023-04-25T00:10:18;6.22;;;4.20;;
13807;SDS011;40769;51.512;5.494;2023-04-25T00:12:45;5.57;;;3.50;;
13807;SDS011;40769;51.512;5.494;2023-04-25T00:15:11;4.43;;;3.47;;
13807;SDS011;40769;51.512;5.494;2023-04-25T00:17:37;5.00;;;3.85;;
13807;SDS011;40769;51.512;5.494;2023-04-25T00:20:03;5.57;;;3.90;;
13807;SDS011;40769;51.512;5.494;2023-04-25T00:22:30;4.95;;;3.30;;
13807;SDS011;40769;51.512;5.494;2023-04-25T00:24:56;6.13;;;3.67;;
13807;SDS011;40769;51.512;5.494;2023-04-25T00:27:25;5.32;;;3.17;;
13807;SDS011;40769;51.512;5.494;2023-04-25T00:29:51;7.45;;;3.95;;
13807;SDS011;40769;51.512;5.494;2023-04-25T00:32:16;5.55;;;3.60;;
13807;SDS011;40769;51.512;5.494;2023-04-25T00:34:42;5.18;;;3.28;;
13807;SDS011;40769;51.512;5.494;2023-04-25T00:37:07;6.80;;;4.00;;
13807;SDS011;40769;51.512;5.494;2023-04-25T00:39:33;5.03;;;3.42;;
13807;SDS011;40769;51.512;5.494;2023-04-25T00:41:59;6.10;;;3.58;;
13807;SDS011;40769;51.512;5.494;2023-04-25T00:44:26;6.47;;;3.33;;
13807;SDS011;40769;51.512;5.494;2023-04-25T00:46:54;4.45;;;3.35;;
13807;SDS011;40769;51.512;5.494;2023-04-25T00:49:20;7.70;;;4.07;;
13807;SDS011;40769;51.512;5.494;2023-04-25T00:51:46;4.13;;;2.63;;
13807;SDS011;40769;51.512;5.494;2023-04-25T00:54:11;4.45;;;2.70;;
13807;SDS011;40769;51.512;5.494;2023-04-25T00:56:37;6.65;;;3.63;;
13807;SDS011;40769;51.512;5.494;2023-04-25T00:59:03;5.07;;;3.35;;
13807;SDS011;40769;51.512;5.494;2023-04-25T01:01:29;5.45;;;3.88;;
13807;SDS011;40769;51.512;5.494;2023-04-25T01:03:56;5.63;;;3.83;;
13807;SDS011;40769;51.512;5.494;2023-04-25T01:06:24;8.32;;;4.20;;
13807;SDS011;40769;51.512;5.494;2023-04-25T01:08:50;3.85;;;3.05;;
13807;SDS011;40769;51.512;5.494;2023-04-25T01:11:16;4.75;;;3.72;;
13807;SDS011;40769;51.512;5.494;2023-04-25T01:13:42;5.28;;;3.60;;
13807;SDS011;40769;51.512;5.494;2023-04-25T01:16:08;6.50;;;4.13;;
13807;SDS011;40769;51.512;5.494;2023-04-25T01:18:33;5.57;;;3.75;;
13807;SDS011;40769;51.512;5.494;2023-04-25T01:21:09;4.57;;;3.53;;
13807;SDS011;40769;51.512;5.494;2023-04-25T01:23:37;6.35;;;4.20;;
13807;SDS011;40769;51.512;5.494;2023-04-25T01:26:04;6.68;;;4.30;;
13807;SDS011;40769;51.512;5.494;2023-04-25T01:28:30;6.75;;;4.22;;
13807;SDS011;40769;51.512;5.494;2023-04-25T01:30:57;8.80;;;4.65;;
13807;SDS011;40769;51.512;5.494;2023-04-25T01:33:23;5.60;;;4.40;;
13807;SDS011;40769;51.512;5.494;2023-04-25T01:35:49;5.75;;;4.25;;
13807;SDS011;40769;51.512;5.494;2023-04-25T01:38:15;4.88;;;3.63;;
13807;SDS011;40769;51.512;5.494;2023-04-25T01:40:41;6.63;;;4.15;;
13807;SDS011;40769;51.512;5.494;2023-04-25T01:43:07;8.38;;;4.82;;
13807;SDS011;40769;51.512;5.494;2023-04-25T01:45:36;6.75;;;4.28;;
13807;SDS011;40769;51.512;5.494;2023-04-25T01:48:07;8.18;;;4.35;;
13807;SDS011;40769;51.512;5.494;2023-04-25T01:50:33;4.95;;;4.15;;
13807;SDS011;40769;51.512;5.494;2023-04-25T01:52:59;7.03;;;4.50;;
13807;SDS011;40769;51.512;5.494;2023-04-25T01:55:26;5.00;;;3.83;;
13807;SDS011;40769;51.512;5.494;2023-04-25T01:57:52;7.55;;;4.43;;
13807;SDS011;40769;51.512;5.494;2023-04-25T02:00:18;8.35;;;4.25;;
13807;SDS011;40769;51.512;5.494;2023-04-25T02:02:44;7.20;;;4.82;;
13807;SDS011;40769;51.512;5.494;2023-04-25T02:05:09;6.32;;;4.25;;
13807;SDS011;40769;51.512;5.494;2023-04-25T02:07:35;7.85;;;4.93;;
13807;SDS011;40769;51.512;5.494;2023-04-25T02:10:01;6.93;;;4.85;;
13807;SDS011;40769;51.512;5.494;2023-04-25T02:12:27;9.75;;;4.82;;
13807;SDS011;40769;51.512;5.494;2023-04-25T02:14:53;7.47;;;4.72;;
13807;SDS011;40769;51.512;5.494;2023-04-25T02:17:18;7.40;;;5.03;;
13807;SDS011;40769;51.512;5.494;2023-04-25T02:19:46;7.45;;;4.47;;
13807;SDS011;40769;51.512;5.494;2023-04-25T02:22:12;5.78;;;3.78;;
13807;SDS011;40769;51.512;5.494;2023-04-25T02:24:38;6.20;;;4.10;;
13807;SDS011;40769;51.512;5.494;2023-04-25T02:27:04;5.32;;;4.00;;
13807;SDS011;40769;51.512;5.494;2023-04-25T02:29:29;7.47;;;4.78;;
13807;SDS011;40769;51.512;5.494;2023-04-25T02:31:55;8.82;;;4.75;;
13807;SDS011;40769;51.512;5.494;2023-04-25T02:34:21;9.35;;;5.03;;
13807;SDS011;40769;51.512;5.494;2023-04-25T02:36:47;6.18;;;4.43;;
13807;SDS011;40769;51.512;5.494;2023-04-25T02:39:14;6.38;;;4.68;;
13807;SDS011;40769;51.512;5.494;2023-04-25T02:41:40;7.82;;;5.13;;
13807;SDS011;40769;51.512;5.494;2023-04-25T02:44:05;7.63;;;4.85;;
13807;SDS011;40769;51.512;5.494;2023-04-25T02:46:31;7.18;;;4.40;;
13807;SDS011;40769;51.512;5.494;2023-04-25T02:48:57;7.75;;;4.95;;
13807;SDS011;40769;51.512;5.494;2023-04-25T02:51:22;7.90;;;5.00;;
13807;SDS011;40769;51.512;5.494;2023-04-25T02:53:48;6.82;;;4.82;;
13807;SDS011;40769;51.512;5.494;2023-04-25T02:56:13;6.28;;;4.15;;
13807;SDS011;40769;51.512;5.494;2023-04-25T02:58:39;5.45;;;4.60;;
13807;SDS011;40769;51.512;5.494;2023-04-25T03:01:05;6.38;;;4.25;;
13807;SDS011;40769;51.512;5.494;2023-04-25T03:03:30;6.47;;;4.47;;
13807;SDS011;40769;51.512;5.494;2023-04-25T03:05:56;6.07;;;4.32;;
13807;SDS011;40769;51.512;5.494;2023-04-25T03:08:21;6.93;;;4.18;;
13807;SDS011;40769;51.512;5.494;2023-04-25T03:10:47;7.43;;;4.90;;
13807;SDS011;40769;51.512;5.494;2023-04-25T03:13:15;6.57;;;4.40;;
13807;SDS011;40769;51.512;5.494;2023-04-25T03:15:40;9.05;;;4.78;;
13807;SDS011;40769;51.512;5.494;2023-04-25T03:18:06;5.10;;;4.60;;
13807;SDS011;40769;51.512;5.494;2023-04-25T03:20:31;6.63;;;3.75;;
13807;SDS011;40769;51.512;5.494;2023-04-25T03:22:57;8.52;;;4.55;;
13807;SDS011;40769;51.512;5.494;2023-04-25T03:25:23;8.35;;;5.30;;
13807;SDS011;40769;51.512;5.494;2023-04-25T03:27:48;7.50;;;5.13;;
13807;SDS011;40769;51.512;5.494;2023-04-25T03:30:14;5.78;;;4.15;;
13807;SDS011;40769;51.512;5.494;2023-04-25T03:32:40;4.82;;;3.83;;
13807;SDS011;40769;51.512;5.494;2023-04-25T03:35:06;10.13;;;4.97;;
13807;SDS011;40769;51.512;5.494;2023-04-25T03:37:32;8.43;;;4.32;;
13807;SDS011;40769;51.512;5.494;2023-04-25T03:39:57;9.00;;;4.28;;
13807;SDS011;40769;51.512;5.494;2023-04-25T03:42:23;8.90;;;4.82;;
13807;SDS011;40769;51.512;5.494;2023-04-25T03:44:49;7.25;;;4.40;;
13807;SDS011;40769;51.512;5.494;2023-04-25T03:47:16;5.93;;;4.05;;
13807;SDS011;40769;51.512;5.494;2023-04-25T03:49:42;6.50;;;3.28;;
13807;SDS011;40769;51.512;5.494;2023-04-25T03:52:07;3.47;;;2.67;;
13807;SDS011;40769;51.512;5.494;2023-04-25T03:54:33;5.22;;;4.18;;
13807;SDS011;40769;51.512;5.494;2023-04-25T03:56:59;6.88;;;4.68;;
13807;SDS011;40769;51.512;5.494;2023-04-25T03:59:24;8.27;;;5.18;;
13807;SDS011;40769;51.512;5.494;2023-04-25T04:01:51;10.07;;;4.72;;
13807;SDS011;40769;51.512;5.494;2023-04-25T04:04:17;7.78;;;4.82;;
13807;SDS011;40769;51.512;5.494;2023-04-25T04:06:43;3.95;;;3.20;;
13807;SDS011;40769;51.512;5.494;2023-04-25T04:09:08;7.75;;;4.20;;
13807;SDS011;40769;51.512;5.494;2023-04-25T04:11:36;4.55;;;3.35;;
13807;SDS011;40769;51.512;5.494;2023-04-25T04:14:03;7.05;;;3.97;;
13807;SDS011;40769;51.512;5.494;2023-04-25T04:16:30;8.40;;;4.72;;
13807;SDS011;40769;51.512;5.494;2023-04-25T04:18:56;7.25;;;4.47;;
13807;SDS011;40769;51.512;5.494;2023-04-25T04:21:21;5.28;;;3.83;;
13807;SDS011;40769;51.512;5.494;2023-04-25T04:23:47;7.97;;;4.72;;
13807;SDS011;40769;51.512;5.494;2023-04-25T04:26:13;7.70;;;5.18;;
13807;SDS011;40769;51.512;5.494;2023-04-25T04:28:41;11.90;;;4.95;;
13807;SDS011;40769;51.512;5.494;2023-04-25T04:31:09;9.57;;;4.65;;
13807;SDS011;40769;51.512;5.494;2023-04-25T04:33:37;7.03;;;4.63;;
13807;SDS011;40769;51.512;5.494;2023-04-25T04:36:03;7.03;;;3.75;;
13807;SDS011;40769;51.512;5.494;2023-04-25T04:38:29;6.05;;;3.55;;
13807;SDS011;40769;51.512;5.494;2023-04-25T04:40:55;8.23;;;4.45;;
13807;SDS011;40769;51.512;5.494;2023-04-25T04:43:20;7.00;;;4.25;;
13807;SDS011;40769;51.512;5.494;2023-04-25T04:45:47;9.48;;;4.90;;
13807;SDS011;40769;51.512;5.494;2023-04-25T04:48:14;5.63;;;3.67;;
13807;SDS011;40769;51.512;5.494;2023-04-25T04:50:42;3.90;;;3.45;;
13807;SDS011;40769;51.512;5.494;2023-04-25T04:53:10;8.23;;;4.50;;
13807;SDS011;40769;51.512;5.494;2023-04-25T04:55:36;6.35;;;3.88;;
13807;SDS011;40769;51.512;5.494;2023-04-25T04:58:02;7.28;;;3.97;;
13807;SDS011;40769;51.512;5.494;2023-04-25T05:00:28;6.65;;;3.33;;
13807;SDS011;40769;51.512;5.494;2023-04-25T05:02:54;5.68;;;3.55;;
13807;SDS011;40769;51.512;5.494;2023-04-25T05:05:21;7.93;;;4.18;;
13807;SDS011;40769;51.512;5.494;2023-04-25T05:07:47;3.72;;;2.88;;
13807;SDS011;40769;51.512;5.494;2023-04-25T05:10:12;7.18;;;4.07;;
13807;SDS011;40769;51.512;5.494;2023-04-25T05:12:38;6.15;;;3.97;;
13807;SDS011;40769;51.512;5.494;2023-04-25T05:15:04;7.20;;;3.97;;
13807;SDS011;40769;51.512;5.494;2023-04-25T05:17:30;7.25;;;3.63;;
13807;SDS011;40769;51.512;5.494;2023-04-25T05:19:56;8.35;;;4.25;;
13807;SDS011;40769;51.512;5.494;2023-04-25T05:22:22;6.35;;;4.00;;
13807;SDS011;40769;51.512;5.494;2023-04-25T05:24:47;5.63;;;3.58;;
13807;SDS011;40769;51.512;5.494;2023-04-25T05:27:13;9.30;;;4.10;;
13807;SDS011;40769;51.512;5.494;2023-04-25T05:29:41;8.85;;;3.92;;
13807;SDS011;40769;51.512;5.494;2023-04-25T05:32:07;6.70;;;3.97;;
13807;SDS011;40769;51.512;5.494;2023-04-25T05:34:33;8.85;;;4.07;;
13807;SDS011;40769;51.512;5.494;2023-04-25T05:36:59;6.00;;;3.33;;
13807;SDS011;40769;51.512;5.494;2023-04-25T05:39:25;7.75;;;3.70;;
13807;SDS011;40769;51.512;5.494;2023-04-25T05:41:51;4.20;;;2.70;;
13807;SDS011;40769;51.512;5.494;2023-04-25T05:44:17;7.75;;;3.42;;
13807;SDS011;40769;51.512;5.494;2023-04-25T05:46:43;6.38;;;3.17;;
13807;SDS011;40769;51.512;5.494;2023-04-25T05:49:09;8.10;;;3.70;;
13807;SDS011;40769;51.512;5.494;2023-04-25T05:51:34;5.90;;;3.65;;
13807;SDS011;40769;51.512;5.494;2023-04-25T05:54:00;5.15;;;3.08;;
13807;SDS011;40769;51.512;5.494;2023-04-25T05:56:25;6.38;;;3.97;;
13807;SDS011;40769;51.512;5.494;2023-04-25T05:58:51;8.63;;;3.97;;
13807;SDS011;40769;51.512;5.494;2023-04-25T06:01:17;7.05;;;3.50;;
13807;SDS011;40769;51.512;5.494;2023-04-25T06:03:43;7.43;;;4.20;;
13807;SDS011;40769;51.512;5.494;2023-04-25T06:06:08;6.90;;;3.42;;
13807;SDS011;40769;51.512;5.494;2023-04-25T06:08:34;5.65;;;3.60;;
13807;SDS011;40769;51.512;5.494;2023-04-25T06:11:00;8.32;;;4.13;;
13807;SDS011;40769;51.512;5.494;2023-04-25T06:13:26;8.68;;;4.47;;
13807;SDS011;40769;51.512;5.494;2023-04-25T06:15:51;5.72;;;3.40;;
13807;SDS011;40769;51.512;5.494;2023-04-25T06:18:17;7.75;;;3.58;;
13807;SDS011;40769;51.512;5.494;2023-04-25T06:20:43;5.85;;;3.58;;
13807;SDS011;40769;51.512;5.494;2023-04-25T06:23:08;7.85;;;3.92;;
13807;SDS011;40769;51.512;5.494;2023-04-25T06:25:34;6.07;;;3.40;;
13807;SDS011;40769;51.512;5.494;2023-04-25T06:27:59;8.70;;;4.13;;
13807;SDS011;40769;51.512;5.494;2023-04-25T06:30:25;6.93;;;3.42;;
13807;SDS011;40769;51.512;5.494;2023-04-25T06:32:51;4.82;;;2.55;;
13807;SDS011;40769;51.512;5.494;2023-04-25T06:35:18;5.55;;;2.72;;
13807;SDS011;40769;51.512;5.494;2023-04-25T06:37:44;5.07;;;2.72;;
13807;SDS011;40769;51.512;5.494;2023-04-25T06:40:09;3.80;;;2.67;;
13807;SDS011;40769;51.512;5.494;2023-04-25T06:42:35;6.18;;;2.70;;
13807;SDS011;40769;51.512;5.494;2023-04-25T06:45:01;5.57;;;2.67;;
13807;SDS011;40769;51.512;5.494;2023-04-25T06:47:27;4.25;;;2.50;;
13807;SDS011;40769;51.512;5.494;2023-04-25T06:49:54;5.80;;;2.97;;
13807;SDS011;40769;51.512;5.494;2023-04-25T06:52:20;5.05;;;2.65;;
13807;SDS011;40769;51.512;5.494;2023-04-25T06:54:46;7.72;;;2.72;;
13807;SDS011;40769;51.512;5.494;2023-04-25T06:57:11;5.65;;;2.70;;
13807;SDS011;40769;51.512;5.494;2023-04-25T06:59:37;4.13;;;2.60;;
13807;SDS011;40769;51.512;5.494;2023-04-25T07:02:03;5.47;;;2.72;;
13807;SDS011;40769;51.512;5.494;2023-04-25T07:04:29;6.28;;;2.95;;
13807;SDS011;40769;51.512;5.494;2023-04-25T07:06:55;4.07;;;2.40;;
13807;SDS011;40769;51.512;5.494;2023-04-25T07:09:21;4.90;;;2.50;;
13807;SDS011;40769;51.512;5.494;2023-04-25T07:11:47;3.92;;;2.20;;
13807;SDS011;40769;51.512;5.494;2023-04-25T07:14:12;5.28;;;2.55;;
13807;SDS011;40769;51.512;5.494;2023-04-25T07:16:38;3.85;;;2.35;;
13807;SDS011;40769;51.512;5.494;2023-04-25T07:19:04;6.03;;;2.25;;
13807;SDS011;40769;51.512;5.494;2023-04-25T07:21:29;6.20;;;2.42;;
13807;SDS011;40769;51.512;5.494;2023-04-25T07:23:56;3.05;;;1.80;;
13807;SDS011;40769;51.512;5.494;2023-04-25T07:26:22;5.35;;;1.75;;
13807;SDS011;40769;51.512;5.494;2023-04-25T07:28:47;3.05;;;1.83;;
13807;SDS011;40769;51.512;5.494;2023-04-25T07:31:15;3.00;;;1.40;;
13807;SDS011;40769;51.512;5.494;2023-04-25T07:33:44;3.40;;;1.60;;
13807;SDS011;40769;51.512;5.494;2023-04-25T07:36:10;4.20;;;1.63;;
13807;SDS011;40769;51.512;5.494;2023-04-25T07:38:37;4.47;;;1.80;;
13807;SDS011;40769;51.512;5.494;2023-04-25T07:41:03;4.05;;;1.65;;
13807;SDS011;40769;51.512;5.494;2023-04-25T07:43:29;3.80;;;1.08;;
13807;SDS011;40769;51.512;5.494;2023-04-25T07:45:55;1.90;;;1.35;;
13807;SDS011;40769;51.512;5.494;2023-04-25T07:48:21;2.42;;;1.48;;
13807;SDS011;40769;51.512;5.494;2023-04-25T07:50:47;4.05;;;1.33;;
13807;SDS011;40769;51.512;5.494;2023-04-25T07:53:13;2.90;;;1.20;;
13807;SDS011;40769;51.512;5.494;2023-04-25T07:55:39;4.07;;;1.60;;
13807;SDS011;40769;51.512;5.494;2023-04-25T07:58:06;5.13;;;1.38;;
13807;SDS011;40769;51.512;5.494;2023-04-25T08:00:32;6.05;;;1.50;;
13807;SDS011;40769;51.512;5.494;2023-04-25T08:02:57;3.58;;;1.40;;
13807;SDS011;40769;51.512;5.494;2023-04-25T08:05:23;2.55;;;1.33;;
13807;SDS011;40769;51.512;5.494;2023-04-25T08:07:49;4.53;;;1.75;;
13807;SDS011;40769;51.512;5.494;2023-04-25T08:10:15;5.18;;;1.80;;
13807;SDS011;40769;51.512;5.494;2023-04-25T08:12:40;4.20;;;1.13;;
13807;SDS011;40769;51.512;5.494;2023-04-25T08:15:06;4.57;;;1.65;;
13807;SDS011;40769;51.512;5.494;2023-04-25T08:17:32;3.42;;;1.45;;
13807;SDS011;40769;51.512;5.494;2023-04-25T08:19:58;6.88;;;1.83;;
13807;SDS011;40769;51.512;5.494;2023-04-25T08:22:24;3.33;;;1.50;;
13807;SDS011;40769;51.512;5.494;2023-04-25T08:24:49;3.35;;;1.67;;
13807;SDS011;40769;51.512;5.494;2023-04-25T08:27:15;4.25;;;1.60;;
13807;SDS011;40769;51.512;5.494;2023-04-25T08:29:41;3.70;;;1.50;;
13807;SDS011;40769;51.512;5.494;2023-04-25T08:32:07;4.43;;;1.75;;
13807;SDS011;40769;51.512;5.494;2023-04-25T08:34:32;6.50;;;2.05;;
13807;SDS011;40769;51.512;5.494;2023-04-25T08:36:58;3.50;;;1.73;;
13807;SDS011;40769;51.512;5.494;2023-04-25T08:39:24;4.05;;;1.65;;
13807;SDS011;40769;51.512;5.494;2023-04-25T08:41:49;4.78;;;1.40;;
13807;SDS011;40769;51.512;5.494;2023-04-25T08:44:15;2.30;;;1.52;;
13807;SDS011;40769;51.512;5.494;2023-04-25T08:46:41;8.05;;;1.90;;
13807;SDS011;40769;51.512;5.494;2023-04-25T08:49:10;4.65;;;1.58;;
13807;SDS011;40769;51.512;5.494;2023-04-25T08:51:37;5.03;;;1.83;;
13807;SDS011;40769;51.512;5.494;2023-04-25T08:54:11;2.92;;;1.67;;
13807;SDS011;40769;51.512;5.494;2023-04-25T08:56:43;5.47;;;1.90;;
13807;SDS011;40769;51.512;5.494;2023-04-25T08:59:12;3.40;;;1.60;;
13807;SDS011;40769;51.512;5.494;2023-04-25T09:01:38;4.38;;;1.73;;
13807;SDS011;40769;51.512;5.494;2023-04-25T09:04:04;3.45;;;1.98;;
13807;SDS011;40769;51.512;5.494;2023-04-25T09:06:30;3.78;;;2.15;;
13807;SDS011;40769;51.512;5.494;2023-04-25T09:09:06;4.15;;;1.85;;
13807;SDS011;40769;51.512;5.494;2023-04-25T09:11:33;5.10;;;2.10;;
13807;SDS011;40769;51.512;5.494;2023-04-25T09:14:17;3.05;;;1.65;;
13807;SDS011;40769;51.512;5.494;2023-04-25T09:19:27;3.45;;;1.40;;
13807;SDS011;40769;51.512;5.494;2023-04-25T09:21:58;4.07;;;1.80;;
13807;SDS011;40769;51.512;5.494;2023-04-25T09:26:56;3.15;;;1.40;;
13807;SDS011;40769;51.512;5.494;2023-04-25T09:29:28;3.15;;;1.20;;
13807;SDS011;40769;51.512;5.494;2023-04-25T09:34:43;2.78;;;1.42;;
13807;SDS011;40769;51.512;5.494;2023-04-25T09:37:28;1.75;;;1.10;;
13807;SDS011;40769;51.512;5.494;2023-04-25T09:42:22;2.42;;;1.20;;
13807;SDS011;40769;51.512;5.494;2023-04-25T09:44:49;2.58;;;1.02;;
13807;SDS011;40769;51.512;5.494;2023-04-25T09:47:17;3.70;;;2.08;;
13807;SDS011;40769;51.512;5.494;2023-04-25T09:49:43;3.45;;;1.27;;
13807;SDS011;40769;51.512;5.494;2023-04-25T09:52:15;1.73;;;0.93;;
13807;SDS011;40769;51.512;5.494;2023-04-25T09:54:43;4.00;;;1.67;;
13807;SDS011;40769;51.512;5.494;2023-04-25T09:59:46;4.30;;;1.45;;
13807;SDS011;40769;51.512;5.494;2023-04-25T10:02:20;2.20;;;1.40;;
13807;SDS011;40769;51.512;5.494;2023-04-25T10:04:54;4.00;;;1.50;;
13807;SDS011;40769;51.512;5.494;2023-04-25T10:07:23;4.25;;;1.70;;
13807;SDS011;40769;51.512;5.494;2023-04-25T10:10:02;4.60;;;1.67;;
13807;SDS011;40769;51.512;5.494;2023-04-25T10:12:29;3.80;;;1.70;;
13807;SDS011;40769;51.512;5.494;2023-04-25T10:14:57;2.45;;;1.40;;
13807;SDS011;40769;51.512;5.494;2023-04-25T10:17:23;2.58;;;1.23;;
13807;SDS011;40769;51.512;5.494;2023-04-25T10:19:52;2.80;;;1.20;;
13807;SDS011;40769;51.512;5.494;2023-04-25T10:22:35;2.35;;;1.10;;
13807;SDS011;40769;51.512;5.494;2023-04-25T10:25:04;1.95;;;0.90;;
13807;SDS011;40769;51.512;5.494;2023-04-25T10:27:31;1.70;;;1.00;;
13807;SDS011;40769;51.512;5.494;2023-04-25T10:30:15;2.58;;;1.00;;
13807;SDS011;40769;51.512;5.494;2023-04-25T10:32:41;2.20;;;0.90;;
13807;SDS011;40769;51.512;5.494;2023-04-25T10:35:14;1.70;;;1.02;;
13807;SDS011;40769;51.512;5.494;2023-04-25T10:40:23;2.15;;;0.98;;
13807;SDS011;40769;51.512;5.494;2023-04-25T10:42:49;3.22;;;1.17;;
13807;SDS011;40769;51.512;5.494;2023-04-25T10:45:18;1.73;;;0.90;;
13807;SDS011;40769;51.512;5.494;2023-04-25T10:47:44;1.63;;;1.05;;
13807;SDS011;40769;51.512;5.494;2023-04-25T10:50:10;3.55;;;1.17;;
13807;SDS011;40769;51.512;5.494;2023-04-25T10:52:39;2.47;;;1.00;;
13807;SDS011;40769;51.512;5.494;2023-04-25T10:55:08;2.80;;;0.90;;
13807;SDS011;40769;51.512;5.494;2023-04-25T11:00:14;2.70;;;1.00;;
13807;SDS011;40769;51.512;5.494;2023-04-25T11:05:09;2.65;;;1.08;;
13807;SDS011;40769;51.512;5.494;2023-04-25T11:07:48;2.20;;;0.80;;
13807;SDS011;40769;51.512;5.494;2023-04-25T11:10:16;2.30;;;1.10;;
13807;SDS011;40769;51.512;5.494;2023-04-25T11:12:42;3.15;;;1.10;;
13807;SDS011;40769;51.512;5.494;2023-04-25T11:15:09;2.78;;;1.20;;
13807;SDS011;40769;51.512;5.494;2023-04-25T11:17:35;2.55;;;0.95;;
13807;SDS011;40769;51.512;5.494;2023-04-25T11:20:01;4.65;;;1.10;;
13807;SDS011;40769;51.512;5.494;2023-04-25T11:22:31;3.10;;;1.00;;
13807;SDS011;40769;51.512;5.494;2023-04-25T11:24:56;4.15;;;1.30;;
13807;SDS011;40769;51.512;5.494;2023-04-25T11:27:22;2.75;;;1.45;;
13807;SDS011;40769;51.512;5.494;2023-04-25T11:29:49;1.83;;;1.20;;
13807;SDS011;40769;51.512;5.494;2023-04-25T11:32:15;2.88;;;1.25;;
13807;SDS011;40769;51.512;5.494;2023-04-25T11:34:43;1.50;;;1.02;;
13807;SDS011;40769;51.512;5.494;2023-04-25T11:37:10;2.28;;;1.20;;
13807;SDS011;40769;51.512;5.494;2023-04-25T11:39:37;2.25;;;1.17;;
13807;SDS011;40769;51.512;5.494;2023-04-25T11:42:03;2.65;;;1.30;;
13807;SDS011;40769;51.512;5.494;2023-04-25T11:44:30;2.83;;;1.00;;
13807;SDS011;40769;51.512;5.494;2023-04-25T11:46:56;2.10;;;0.90;;
13807;SDS011;40769;51.512;5.494;2023-04-25T11:49:21;2.13;;;0.80;;
13807;SDS011;40769;51.512;5.494;2023-04-25T11:51:49;1.73;;;1.00;;
13807;SDS011;40769;51.512;5.494;2023-04-25T11:54:15;1.33;;;0.90;;
13807;SDS011;40769;51.512;5.494;2023-04-25T11:56:41;2.50;;;0.90;;
13807;SDS011;40769;51.512;5.494;2023-04-25T11:59:08;1.20;;;0.77;;
13807;SDS011;40769;51.512;5.494;2023-04-25T12:01:34;1.73;;;1.00;;
13807;SDS011;40769;51.512;5.494;2023-04-25T12:04:11;2.15;;;1.00;;
13807;SDS011;40769;51.512;5.494;2023-04-25T12:06:39;1.92;;;1.20;;
13807;SDS011;40769;51.512;5.494;2023-04-25T12:09:07;1.35;;;0.98;;
13807;SDS011;40769;51.512;5.494;2023-04-25T12:11:40;1.88;;;0.90;;
13807;SDS011;40769;51.512;5.494;2023-04-25T12:14:07;2.03;;;1.00;;
13807;SDS011;40769;51.512;5.494;2023-04-25T12:16:43;1.45;;;0.70;;
13807;SDS011;40769;51.512;5.494;2023-04-25T12:19:13;2.25;;;0.88;;
13807;SDS011;40769;51.512;5.494;2023-04-25T12:21:42;1.52;;;0.90;;
13807;SDS011;40769;51.512;5.494;2023-04-25T12:24:12;2.25;;;0.85;;
13807;SDS011;40769;51.512;5.494;2023-04-25T12:29:25;1.95;;;0.82;;
13807;SDS011;40769;51.512;5.494;2023-04-25T12:31:52;1.13;;;0.60;;
13807;SDS011;40769;51.512;5.494;2023-04-25T12:34:19;1.65;;;0.60;;
13807;SDS011;40769;51.512;5.494;2023-04-25T12:36:46;1.05;;;0.80;;
13807;SDS011;40769;51.512;5.494;2023-04-25T12:39:19;0.82;;;0.70;;
13807;SDS011;40769;51.512;5.494;2023-04-25T12:41:49;1.42;;;0.70;;
13807;SDS011;40769;51.512;5.494;2023-04-25T12:44:15;1.20;;;0.60;;
13807;SDS011;40769;51.512;5.494;2023-04-25T12:46:42;2.45;;;0.80;;
13807;SDS011;40769;51.512;5.494;2023-04-25T12:49:07;1.77;;;0.90;;
13807;SDS011;40769;51.512;5.494;2023-04-25T12:51:34;1.40;;;0.70;;
13807;SDS011;40769;51.512;5.494;2023-04-25T12:54:01;1.70;;;0.90;;
13807;SDS011;40769;51.512;5.494;2023-04-25T12:56:28;1.20;;;0.60;;
13807;SDS011;40769;51.512;5.494;2023-04-25T12:58:54;2.25;;;0.90;;
13807;SDS011;40769;51.512;5.494;2023-04-25T13:01:20;0.77;;;0.60;;
13807;SDS011;40769;51.512;5.494;2023-04-25T13:03:46;1.27;;;0.80;;
13807;SDS011;40769;51.512;5.494;2023-04-25T13:06:13;2.22;;;1.10;;
13807;SDS011;40769;51.512;5.494;2023-04-25T13:08:39;1.58;;;0.90;;
13807;SDS011;40769;51.512;5.494;2023-04-25T13:11:05;2.35;;;1.13;;
13807;SDS011;40769;51.512;5.494;2023-04-25T13:13:31;3.40;;;1.13;;
13807;SDS011;40769;51.512;5.494;2023-04-25T13:15:57;4.03;;;1.20;;
13807;SDS011;40769;51.512;5.494;2023-04-25T13:18:23;2.03;;;0.88;;
13807;SDS011;40769;51.512;5.494;2023-04-25T13:20:52;2.17;;;1.05;;
13807;SDS011;40769;51.512;5.494;2023-04-25T13:23:18;2.10;;;0.95;;
13807;SDS011;40769;51.512;5.494;2023-04-25T13:25:45;3.38;;;1.30;;
13807;SDS011;40769;51.512;5.494;2023-04-25T13:28:11;2.75;;;1.25;;
13807;SDS011;40769;51.512;5.494;2023-04-25T13:30:37;2.40;;;1.08;;
13807;SDS011;40769;51.512;5.494;2023-04-25T13:33:02;2.20;;;1.02;;
13807;SDS011;40769;51.512;5.494;2023-04-25T13:35:28;1.83;;;0.82;;
13807;SDS011;40769;51.512;5.494;2023-04-25T13:37:55;1.45;;;0.70;;
13807;SDS011;40769;51.512;5.494;2023-04-25T13:40:21;1.88;;;0.90;;
13807;SDS011;40769;51.512;5.494;2023-04-25T13:42:47;1.05;;;0.73;;
13807;SDS011;40769;51.512;5.494;2023-04-25T13:45:13;1.85;;;1.10;;
13807;SDS011;40769;51.512;5.494;2023-04-25T13:47:38;3.10;;;1.00;;
13807;SDS011;40769;51.512;5.494;2023-04-25T13:50:04;3.15;;;1.10;;
13807;SDS011;40769;51.512;5.494;2023-04-25T13:52:30;3.80;;;1.33;;
13807;SDS011;40769;51.512;5.494;2023-04-25T13:54:56;3.72;;;1.10;;
13807;SDS011;40769;51.512;5.494;2023-04-25T13:57:23;1.38;;;0.90;;
13807;SDS011;40769;51.512;5.494;2023-04-25T13:59:48;3.15;;;1.08;;
13807;SDS011;40769;51.512;5.494;2023-04-25T14:02:14;1.60;;;0.90;;
13807;SDS011;40769;51.512;5.494;2023-04-25T14:04:40;2.38;;;1.20;;
13807;SDS011;40769;51.512;5.494;2023-04-25T14:07:06;2.10;;;1.13;;
13807;SDS011;40769;51.512;5.494;2023-04-25T14:09:31;2.38;;;1.08;;
13807;SDS011;40769;51.512;5.494;2023-04-25T14:11:57;3.42;;;1.38;;
13807;SDS011;40769;51.512;5.494;2023-04-25T14:14:23;2.22;;;1.05;;
13807;SDS011;40769;51.512;5.494;2023-04-25T14:16:49;4.57;;;1.00;;
13807;SDS011;40769;51.512;5.494;2023-04-25T14:19:16;1.73;;;1.15;;
13807;SDS011;40769;51.512;5.494;2023-04-25T14:21:42;4.00;;;1.35;;
13807;SDS011;40769;51.512;5.494;2023-04-25T14:24:09;3.58;;;1.48;;
13807;SDS011;40769;51.512;5.494;2023-04-25T14:26:35;2.33;;;1.13;;
13807;SDS011;40769;51.512;5.494;2023-04-25T14:29:02;1.92;;;1.17;;
13807;SDS011;40769;51.512;5.494;2023-04-25T14:31:31;1.73;;;0.90;;
13807;SDS011;40769;51.512;5.494;2023-04-25T14:33:57;3.47;;;1.30;;
13807;SDS011;40769;51.512;5.494;2023-04-25T14:36:23;2.47;;;1.40;;
13807;SDS011;40769;51.512;5.494;2023-04-25T14:38:48;2.65;;;1.10;;
13807;SDS011;40769;51.512;5.494;2023-04-25T14:41:14;3.65;;;1.63;;
13807;SDS011;40769;51.512;5.494;2023-04-25T14:43:40;1.73;;;1.30;;
13807;SDS011;40769;51.512;5.494;2023-04-25T14:46:06;2.03;;;1.20;;
13807;SDS011;40769;51.512;5.494;2023-04-25T14:48:32;1.73;;;0.90;;
13807;SDS011;40769;51.512;5.494;2023-04-25T14:50:58;3.00;;;1.40;;
13807;SDS011;40769;51.512;5.494;2023-04-25T14:53:25;2.08;;;1.13;;
13807;SDS011;40769;51.512;5.494;2023-04-25T14:55:51;2.95;;;1.27;;
13807;SDS011;40769;51.512;5.494;2023-04-25T14:58:17;1.65;;;0.98;;
13807;SDS011;40769;51.512;5.494;2023-04-25T15:00:43;2.33;;;1.10;;
13807;SDS011;40769;51.512;5.494;2023-04-25T15:03:09;2.03;;;1.20;;
13807;SDS011;40769;51.512;5.494;2023-04-25T15:05:36;2.05;;;1.10;;
13807;SDS011;40769;51.512;5.494;2023-04-25T15:08:02;2.55;;;1.15;;